Time;durP1;ratioP1;P1;durP2;ratioP2;P2;SDS_P1;SDS_P2;PMS_P1;PMS_P2;Temp;Humidity;BMP_temperature;BMP_pressure;BME280_temperature;BME280_humidity;BME280_pressure;Samples;Min_cycle;Max_cycle;Signal;HPM_P1;HPM_P2
2022/07/03 00:00:53;;;;;;;4.30;2.27;;;27.20;62.10;;;;;;6223793;22;20450;-71
2022/07/03 00:03:21;;;;;;;2.67;2.13;;;27.20;62.10;;;;;;6275339;22;20366;-71
2022/07/03 00:05:47;;;;;;;4.90;2.17;;;27.10;62.00;;;;;;6275662;22;20406;-71
2022/07/03 00:08:16;;;;;;;2.53;2.20;;;27.10;62.10;;;;;;6275265;22;20906;-71
2022/07/03 00:10:48;;;;;;;2.10;1.67;;;27.10;62.10;;;;;;6275628;22;20379;-71
2022/07/03 00:13:14;;;;;;;1.80;1.70;;;27.10;62.20;;;;;;6275690;22;20851;-71
2022/07/03 00:15:43;;;;;;;4.70;2.70;;;27.10;62.20;;;;;;6223584;22;20357;-71
2022/07/03 00:18:11;;;;;;;2.07;1.87;;;27.10;62.20;;;;;;6273869;22;20405;-71
2022/07/03 00:20:47;;;;;;;2.43;1.87;;;27.00;62.20;;;;;;6247707;22;20366;-71
2022/07/03 00:23:19;;;;;;;2.30;1.50;;;27.00;62.20;;;;;;6246842;22;20401;-71
2022/07/03 00:25:45;;;;;;;2.30;1.87;;;27.00;62.20;;;;;;6246964;22;20896;-71
2022/07/03 00:28:12;;;;;;;2.93;1.73;;;27.00;62.30;;;;;;6272091;22;20421;-71
2022/07/03 00:30:38;;;;;;;2.70;1.80;;;27.00;62.30;;;;;;6273901;22;20373;-71
2022/07/03 00:33:06;;;;;;;2.17;1.80;;;26.90;62.30;;;;;;6246737;22;20366;-71
2022/07/03 00:35:35;;;;;;;3.43;1.83;;;27.00;62.40;;;;;;6273929;22;20405;-71
2022/07/03 00:38:02;;;;;;;2.13;1.93;;;26.90;62.50;;;;;;6272544;22;20515;-71
2022/07/03 00:40:29;;;;;;;2.50;2.30;;;26.90;62.50;;;;;;6247053;22;20365;-71
2022/07/03 00:43:02;;;;;;;1.80;1.70;;;26.90;62.50;;;;;;6273392;22;20393;-71
2022/07/03 00:45:32;;;;;;;3.97;2.00;;;26.90;62.60;;;;;;6221334;22;20429;-71
2022/07/03 00:48:00;;;;;;;3.80;2.30;;;26.80;62.50;;;;;;6221259;22;20684;-71
2022/07/03 00:50:34;;;;;;;2.23;2.00;;;26.80;62.50;;;;;;6272152;22;20378;-71
2022/07/03 00:53:02;;;;;;;2.00;1.80;;;26.80;62.60;;;;;;6273581;22;20401;-71
2022/07/03 00:55:32;;;;;;;2.80;2.13;;;26.80;62.60;;;;;;6221245;22;20409;-71
2022/07/03 00:58:02;;;;;;;3.03;2.23;;;26.70;62.60;;;;;;6246530;22;20413;-71
2022/07/03 01:00:28;;;;;;;2.93;1.70;;;26.80;62.80;;;;;;6272244;22;20920;-71
2022/07/03 01:03:04;;;;;;;2.30;1.80;;;26.80;62.90;;;;;;6247213;22;20377;-71
2022/07/03 01:05:40;;;;;;;2.90;1.97;;;26.70;62.80;;;;;;6273457;22;20405;-71
2022/07/03 01:08:26;;;;;;;4.60;2.10;;;26.70;62.90;;;;;;6273338;22;20401;-71
2022/07/03 01:11:07;;;;;;;2.10;1.90;;;26.70;62.90;;;;;;6272123;22;20413;-71
2022/07/03 01:14:15;;;;;;;2.50;1.70;;;26.60;62.90;;;;;;6246526;22;20612;-71
2022/07/03 01:16:55;;;;;;;3.90;2.10;;;26.60;62.90;;;;;;6197058;22;1153647;-71
2022/07/03 01:19:43;;;;;;;2.50;2.03;;;26.60;63.00;;;;;;6222264;22;20178;-71
2022/07/03 01:22:31;;;;;;;2.40;1.93;;;26.60;63.10;;;;;;6273219;22;20508;-71
2022/07/03 01:25:22;;;;;;;3.00;1.90;;;26.50;63.10;;;;;;6247721;22;21093;-71
2022/07/03 01:27:51;;;;;;;3.27;1.87;;;26.50;63.10;;;;;;6247778;22;20457;-71
2022/07/03 01:30:21;;;;;;;1.77;1.63;;;26.50;63.20;;;;;;6274656;22;20483;-71
2022/07/03 01:33:13;;;;;;;2.73;1.63;;;26.50;63.20;;;;;;6247024;22;20378;-71
2022/07/03 01:35:54;;;;;;;2.70;2.17;;;26.50;63.30;;;;;;6247829;22;20417;-71
2022/07/03 01:38:21;;;;;;;2.53;2.00;;;26.40;63.20;;;;;;6274597;22;20771;-71
2022/07/03 01:40:50;;;;;;;2.97;2.03;;;26.40;63.30;;;;;;6247481;22;20362;-71
2022/07/03 01:43:22;;;;;;;3.10;1.90;;;26.40;63.40;;;;;;6247672;22;20419;-70
2022/07/03 01:45:50;;;;;;;3.20;1.70;;;26.40;63.50;;;;;;6272867;22;20487;-70
2022/07/03 01:48:21;;;;;;;3.60;2.00;;;26.40;63.50;;;;;;6272910;22;20449;-70
2022/07/03 01:50:50;;;;;;;3.40;2.10;;;26.40;63.50;;;;;;6274299;22;20455;-70
2022/07/03 01:53:20;;;;;;;2.30;1.87;;;26.40;63.60;;;;;;6274487;22;20365;-70
2022/07/03 01:55:48;;;;;;;2.13;1.80;;;26.30;63.50;;;;;;6274268;22;20744;-70
2022/07/03 01:58:18;;;;;;;2.60;2.00;;;26.30;63.60;;;;;;6273703;22;20467;-70
2022/07/03 02:01:15;;;;;;;2.90;2.10;;;26.30;63.60;;;;;;6247904;22;20819;-70
2022/07/03 02:03:51;;;;;;;2.30;2.10;;;26.30;63.70;;;;;;6233106;22;20403;-70
2022/07/03 02:06:45;;;;;;;2.40;2.17;;;26.30;64.60;;;;;;6249438;22;20978;-70
2022/07/03 02:09:21;;;;;;;2.33;1.77;;;26.20;63.80;;;;;;6238044;22;20416;-72
2022/07/03 02:11:50;;;;;;;2.60;1.77;;;26.20;63.80;;;;;;6224955;22;20441;-72
2022/07/03 02:14:31;;;;;;;2.53;1.80;;;26.20;63.80;;;;;;6273676;22;20420;-68
2022/07/03 02:17:21;;;;;;;2.03;1.73;;;26.10;63.80;;;;;;6249392;22;20419;-69
2022/07/03 02:19:49;;;;;;;2.73;1.87;;;26.10;63.90;;;;;;6223924;22;20898;-72
2022/07/03 02:22:22;;;;;;;2.10;1.90;;;26.10;63.90;;;;;;6248780;22;20839;-70
2022/07/03 02:24:48;;;;;;;3.30;1.80;;;26.10;64.10;;;;;;6248250;22;20445;-71
2022/07/03 02:27:28;;;;;;;2.13;1.77;;;26.10;64.10;;;;;;6248242;22;20496;-70
2022/07/03 02:30:06;;;;;;;3.23;1.90;;;26.10;64.20;;;;;;6275902;22;20738;-71
2022/07/03 02:32:36;;;;;;;1.90;1.70;;;26.10;65.00;;;;;;6248771;22;20497;-70
2022/07/03 02:35:05;;;;;;;4.20;1.83;;;26.10;64.20;;;;;;6248610;22;20452;-71
2022/07/03 02:37:54;;;;;;;2.30;2.10;;;26.00;64.20;;;;;;6248124;22;20423;-71
2022/07/03 02:40:28;;;;;;;3.00;1.80;;;26.00;64.20;;;;;;6223022;22;20848;-71
2022/07/03 02:43:30;;;;;;;2.77;2.00;;;26.00;64.20;;;;;;6248518;22;20469;-72
2022/07/03 02:46:51;;;;;;;2.23;1.53;;;26.00;64.30;;;;;;6175719;22;20519;-70
2022/07/03 02:49:49;;;;;;;2.60;2.13;;;25.90;64.30;;;;;;6275486;22;20862;-73
2022/07/03 02:52:22;;;;;;;2.47;1.70;;;25.90;64.30;;;;;;6248172;22;20427;-71
2022/07/03 02:54:57;;;;;;;1.93;1.80;;;25.90;64.40;;;;;;6248609;22;20366;-71
2022/07/03 02:57:34;;;;;;;2.43;1.93;;;25.90;64.50;;;;;;6275150;22;20361;-72
2022/07/03 03:00:06;;;;;;;2.60;1.83;;;25.90;64.50;;;;;;6198604;22;20417;-70
2022/07/03 03:02:47;;;;;;;3.10;2.10;;;25.80;64.40;;;;;;6275514;22;20377;-71
2022/07/03 03:05:22;;;;;;;1.77;1.60;;;25.80;64.50;;;;;;6248312;22;20412;-71
2022/07/03 03:08:28;;;;;;;2.83;2.17;;;25.80;64.60;;;;;;6273681;22;20389;-70
2022/07/03 03:11:10;;;;;;;2.60;2.10;;;25.80;64.60;;;;;;6248056;22;20445;-71
2022/07/03 03:13:36;;;;;;;2.00;1.80;;;25.80;64.70;;;;;;6222432;22;20414;-70
2022/07/03 03:16:11;;;;;;;2.37;2.17;;;25.70;64.60;;;;;;6273870;22;20381;-71
2022/07/03 03:18:38;;;;;;;2.67;2.10;;;25.70;64.70;;;;;;6247915;22;20473;-71
2022/07/03 03:21:10;;;;;;;1.90;1.70;;;25.70;64.70;;;;;;6273693;22;20373;-70
2022/07/03 03:23:53;;;;;;;2.33;1.70;;;25.70;64.70;;;;;;6224423;22;20397;-72
2022/07/03 03:26:32;;;;;;;3.30;2.60;;;25.60;64.70;;;;;;6272046;22;20444;-71
2022/07/03 03:29:02;;;;;;;2.20;2.00;;;25.60;64.80;;;;;;6248628;22;20764;-70
2022/07/03 03:31:29;;;;;;;3.07;1.87;;;25.60;64.80;;;;;;6274830;22;20749;-71
2022/07/03 03:33:55;;;;;;;2.47;2.20;;;25.60;64.80;;;;;;6273446;22;20449;-71
2022/07/03 03:36:24;;;;;;;2.00;1.90;;;25.60;64.90;;;;;;6223098;22;20385;-70
2022/07/03 03:39:04;;;;;;;2.23;2.03;;;25.60;65.00;;;;;;6274535;22;20432;-71
2022/07/03 03:41:30;;;;;;;1.97;1.70;;;25.50;65.00;;;;;;6273488;22;20385;-71
2022/07/03 03:43:57;;;;;;;2.63;2.30;;;25.50;64.90;;;;;;6274765;22;20366;-71
2022/07/03 03:46:28;;;;;;;2.67;2.00;;;25.50;65.00;;;;;;6274886;22;20491;-71
2022/07/03 03:48:55;;;;;;;3.90;2.17;;;25.50;65.10;;;;;;6247919;22;20394;-71
2022/07/03 03:51:21;;;;;;;4.90;2.27;;;25.50;65.10;;;;;;6272956;22;20500;-69
2022/07/03 03:53:47;;;;;;;1.90;1.80;;;25.50;65.20;;;;;;6274897;22;20505;-69
2022/07/03 03:56:14;;;;;;;2.50;1.80;;;25.40;65.10;;;;;;6274998;22;20405;-69
2022/07/03 03:58:43;;;;;;;2.20;2.00;;;25.40;65.20;;;;;;6272637;22;20405;-69
2022/07/03 04:01:11;;;;;;;2.27;1.90;;;25.40;65.20;;;;;;6247815;22;20423;-70
2022/07/03 04:03:41;;;;;;;2.20;1.93;;;25.40;65.30;;;;;;6273401;22;20440;-69
2022/07/03 04:06:07;;;;;;;2.40;2.00;;;25.40;65.30;;;;;;6245326;22;20891;-70
2022/07/03 04:08:33;;;;;;;3.20;2.20;;;25.40;65.30;;;;;;6270542;22;20610;-69
2022/07/03 04:11:01;;;;;;;2.80;2.43;;;25.30;65.30;;;;;;6244576;22;20375;-69
2022/07/03 04:13:30;;;;;;;2.43;2.10;;;25.30;65.30;;;;;;6272336;22;20443;-68
2022/07/03 04:16:00;;;;;;;2.30;2.10;;;25.30;65.40;;;;;;6245340;22;20358;-69
2022/07/03 04:18:26;;;;;;;1.97;1.77;;;25.30;65.40;;;;;;6244828;22;20794;-68
2022/07/03 04:20:53;;;;;;;2.33;1.87;;;25.30;65.40;;;;;;6271067;22;20373;-69
2022/07/03 04:23:20;;;;;;;3.13;1.87;;;25.30;65.50;;;;;;6245324;22;20394;-70
2022/07/03 04:25:46;;;;;;;1.97;1.77;;;25.20;65.50;;;;;;6244393;22;20432;-69
2022/07/03 04:28:12;;;;;;;2.30;1.70;;;25.20;65.50;;;;;;6271427;22;20421;-69
2022/07/03 04:30:39;;;;;;;3.10;1.93;;;25.20;65.50;;;;;;6244840;22;20366;-69
2022/07/03 04:33:07;;;;;;;2.40;1.90;;;25.20;65.60;;;;;;6244554;22;20362;-70
2022/07/03 04:35:36;;;;;;;3.07;1.70;;;25.20;65.60;;;;;;6245031;22;20952;-69
2022/07/03 04:38:02;;;;;;;2.27;1.93;;;25.20;65.70;;;;;;6219159;22;20401;-69
2022/07/03 04:40:28;;;;;;;1.90;1.80;;;25.20;65.80;;;;;;6244588;22;20374;-69
2022/07/03 04:42:53;;;;;;;4.50;2.30;;;25.10;65.70;;;;;;6269726;22;20389;-69
2022/07/03 04:45:20;;;;;;;4.30;2.20;;;25.10;65.80;;;;;;6245143;22;20749;-69
2022/07/03 04:47:46;;;;;;;2.30;2.07;;;25.10;65.90;;;;;;6271694;22;20229;-69
2022/07/03 04:50:12;;;;;;;2.07;1.90;;;25.10;65.90;;;;;;6245064;22;20844;-69
2022/07/03 04:52:38;;;;;;;1.90;1.67;;;25.10;66.00;;;;;;6269374;22;20205;-70
2022/07/03 04:55:07;;;;;;;2.30;2.10;;;25.00;66.00;;;;;;6245005;22;20978;-69
2022/07/03 04:57:35;;;;;;;3.37;2.00;;;25.10;66.10;;;;;;6244661;22;20397;-69
2022/07/03 05:00:02;;;;;;;2.93;2.37;;;25.00;66.10;;;;;;6271845;22;20402;-69
2022/07/03 05:02:30;;;;;;;2.60;1.87;;;25.00;66.20;;;;;;6245198;22;20373;-69
2022/07/03 05:04:58;;;;;;;2.30;2.10;;;25.00;67.10;;;;;;6244049;22;20429;-69
2022/07/03 05:07:24;;;;;;;2.17;1.97;;;25.00;66.40;;;;;;6244590;22;20373;-69
2022/07/03 05:09:50;;;;;;;2.13;1.60;;;25.00;66.50;;;;;;6271630;22;20402;-69
2022/07/03 05:12:21;;;;;;;2.83;1.83;;;25.00;66.60;;;;;;6271986;22;20365;-69
2022/07/03 05:14:52;;;;;;;2.83;2.10;;;25.00;66.70;;;;;;6220212;22;20389;-69
2022/07/03 05:17:23;;;;;;;4.30;2.20;;;25.00;66.80;;;;;;6214290;23;20457;-69
2022/07/03 05:20:23;;;;;;;3.50;2.40;;;24.90;66.80;;;;;;6267559;22;20509;-69
2022/07/03 05:22:35;;;;;;;3.93;2.13;;;24.90;66.90;;;;;;6219232;22;20397;-69
2022/07/03 05:25:04;;;;;;;3.23;2.27;;;24.90;67.00;;;;;;6270682;22;20431;-69
2022/07/03 05:27:30;;;;;;;3.53;1.73;;;24.90;67.10;;;;;;6218485;22;20373;-69
2022/07/03 05:29:56;;;;;;;3.00;2.03;;;24.90;67.20;;;;;;6245106;22;20402;-69
2022/07/03 05:32:22;;;;;;;1.97;1.77;;;24.90;67.30;;;;;;6244554;22;20146;-69
2022/07/03 05:34:48;;;;;;;2.50;2.23;;;24.90;67.40;;;;;;6271876;22;20374;-69
2022/07/03 05:37:14;;;;;;;2.47;2.00;;;24.90;67.50;;;;;;6245115;22;20198;-69
2022/07/03 05:39:40;;;;;;;5.03;2.30;;;24.90;67.60;;;;;;6273781;22;20408;-69
2022/07/03 05:42:06;;;;;;;3.60;2.50;;;24.90;67.70;;;;;;6269988;22;20382;-69
2022/07/03 05:44:34;;;;;;;2.83;1.73;;;24.90;67.70;;;;;;6273523;22;20413;-70
2022/07/03 05:47:00;;;;;;;3.60;1.97;;;24.90;67.80;;;;;;6220827;22;20380;-70
2022/07/03 05:49:26;;;;;;;2.37;1.83;;;24.80;67.80;;;;;;6273266;22;20416;-70
2022/07/03 05:51:52;;;;;;;2.60;2.03;;;24.80;67.80;;;;;;6246449;22;20997;-70
2022/07/03 05:54:21;;;;;;;3.63;2.13;;;24.80;67.90;;;;;;6221299;22;20401;-70
2022/07/03 05:56:47;;;;;;;2.90;2.00;;;24.80;67.90;;;;;;6221299;22;20400;-70
2022/07/03 05:59:13;;;;;;;4.13;2.07;;;24.80;67.80;;;;;;6246677;22;20407;-70
2022/07/03 06:01:41;;;;;;;3.00;2.20;;;24.80;67.90;;;;;;6274000;22;20151;-71
2022/07/03 06:04:09;;;;;;;4.70;2.07;;;24.80;67.90;;;;;;6273504;22;20427;-70
2022/07/03 06:06:35;;;;;;;1.60;1.50;;;24.80;67.80;;;;;;6247186;22;20202;-70
2022/07/03 06:09:04;;;;;;;2.83;2.30;;;24.80;67.90;;;;;;6272499;22;20805;-70
2022/07/03 06:11:32;;;;;;;3.40;2.33;;;24.80;67.90;;;;;;6274072;22;20369;-70
2022/07/03 06:13:58;;;;;;;4.30;2.63;;;24.70;67.70;;;;;;6272196;22;20373;-70
2022/07/03 06:16:27;;;;;;;2.20;2.00;;;24.70;67.90;;;;;;6271708;22;20699;-70
2022/07/03 06:18:53;;;;;;;2.73;2.00;;;24.80;68.00;;;;;;6243834;22;20481;-70
2022/07/03 06:21:19;;;;;;;2.20;2.00;;;24.80;67.90;;;;;;6248676;22;20708;-68
2022/07/03 06:23:50;;;;;;;2.67;1.80;;;24.70;67.80;;;;;;6250083;22;20472;-69
2022/07/03 06:26:18;;;;;;;3.80;2.93;;;24.70;67.80;;;;;;6277142;22;20409;-69
2022/07/03 06:28:44;;;;;;;2.53;2.33;;;24.70;67.80;;;;;;6224577;22;20949;-69
2022/07/03 06:31:11;;;;;;;2.17;2.00;;;24.70;67.80;;;;;;6250024;22;20366;-69
2022/07/03 06:33:43;;;;;;;2.23;2.03;;;24.70;67.70;;;;;;6250540;22;20199;-69
2022/07/03 06:36:14;;;;;;;2.80;2.60;;;24.70;67.70;;;;;;6250006;22;20389;-69
2022/07/03 06:38:40;;;;;;;2.27;2.03;;;24.70;67.70;;;;;;6249895;22;20409;-69
2022/07/03 06:41:06;;;;;;;2.73;2.00;;;24.70;67.70;;;;;;6276930;22;20673;-69
2022/07/03 06:43:32;;;;;;;3.27;2.10;;;24.70;67.60;;;;;;6222439;22;20381;-69
2022/07/03 06:46:00;;;;;;;1.83;1.73;;;24.70;67.60;;;;;;6276956;22;20401;-69
2022/07/03 06:48:27;;;;;;;2.07;1.80;;;24.70;67.50;;;;;;6224611;22;20530;-68
2022/07/03 06:50:55;;;;;;;1.70;1.50;;;24.70;67.50;;;;;;6250451;22;20397;-69
2022/07/03 06:53:26;;;;;;;2.37;1.90;;;24.70;67.50;;;;;;6275275;22;20397;-69
2022/07/03 06:55:59;;;;;;;4.13;1.90;;;24.70;67.40;;;;;;6276976;22;20879;-69
2022/07/03 06:58:27;;;;;;;2.60;2.40;;;24.70;67.30;;;;;;6250006;22;20393;-69
2022/07/03 07:00:53;;;;;;;4.13;2.53;;;24.70;67.20;;;;;;6276286;22;20405;-69
2022/07/03 07:03:21;;;;;;;2.03;1.90;;;24.70;67.20;;;;;;6275409;22;20442;-69
2022/07/03 07:05:52;;;;;;;2.60;2.00;;;24.70;67.20;;;;;;6275081;22;20457;-69
2022/07/03 07:08:21;;;;;;;2.53;2.17;;;24.70;67.10;;;;;;6276785;22;20784;-69
2022/07/03 07:10:49;;;;;;;2.30;2.10;;;24.70;67.10;;;;;;6276883;22;20386;-69
2022/07/03 07:13:15;;;;;;;2.70;2.20;;;24.70;67.00;;;;;;6249870;22;20367;-69
2022/07/03 07:15:41;;;;;;;2.50;1.90;;;24.70;67.00;;;;;;6276875;22;20367;-69
2022/07/03 07:18:10;;;;;;;2.60;2.20;;;24.70;66.90;;;;;;6276464;22;20413;-69
2022/07/03 07:20:35;;;;;;;2.33;2.13;;;24.70;66.90;;;;;;6275257;22;20458;-69
2022/07/03 07:23:04;;;;;;;2.10;1.90;;;24.70;66.80;;;;;;6224669;22;20412;-69
2022/07/03 07:25:32;;;;;;;3.00;2.70;;;24.80;66.80;;;;;;6276707;22;20455;-69
2022/07/03 07:28:00;;;;;;;2.13;1.80;;;24.80;66.80;;;;;;6224689;22;20381;-69
2022/07/03 07:30:29;;;;;;;1.80;1.70;;;24.80;66.70;;;;;;6277377;22;20362;-69
2022/07/03 07:32:57;;;;;;;2.37;2.10;;;24.80;66.70;;;;;;6250107;22;20373;-68
2022/07/03 07:35:30;;;;;;;3.20;2.53;;;24.80;66.60;;;;;;6277261;22;20417;-68
2022/07/03 07:37:56;;;;;;;2.07;1.70;;;24.80;66.60;;;;;;6249490;22;20445;-69
2022/07/03 07:40:25;;;;;;;4.43;1.93;;;24.80;66.50;;;;;;6277392;22;20385;-69
2022/07/03 07:42:53;;;;;;;2.40;2.20;;;24.90;66.60;;;;;;6224196;22;20155;-69
2022/07/03 07:45:22;;;;;;;2.20;2.00;;;24.80;66.40;;;;;;6249362;22;20417;-69
2022/07/03 07:47:50;;;;;;;2.37;2.17;;;24.80;66.40;;;;;;6250359;22;20397;-69
2022/07/03 07:50:16;;;;;;;2.43;2.10;;;24.80;66.40;;;;;;6224919;22;20383;-69
2022/07/03 07:52:42;;;;;;;3.00;2.33;;;24.80;66.40;;;;;;6275600;22;20489;-69
2022/07/03 07:55:13;;;;;;;2.87;2.30;;;24.90;66.40;;;;;;6277042;22;20252;-69
2022/07/03 07:57:49;;;;;;;2.50;2.10;;;24.90;66.40;;;;;;6250036;22;20864;-69
2022/07/03 08:00:19;;;;;;;5.70;2.10;;;24.90;66.40;;;;;;6249839;22;20362;-69
2022/07/03 08:05:35;;;;;;;2.20;2.00;;;24.90;66.30;;;;;;6250132;22;20413;-69
2022/07/03 08:08:14;;;;;;;3.00;2.07;;;24.90;66.30;;;;;;6277073;22;20737;-69
2022/07/03 08:10:49;;;;;;;2.13;1.93;;;24.90;66.40;;;;;;6275349;22;20408;-69
2022/07/03 08:13:17;;;;;;;2.00;1.90;;;25.00;66.40;;;;;;6249950;22;20382;-69
2022/07/03 08:15:47;;;;;;;1.90;1.80;;;25.00;66.40;;;;;;6224644;22;20405;-69
2022/07/03 08:18:14;;;;;;;2.30;1.80;;;25.00;66.30;;;;;;6249870;22;20433;-69
2022/07/03 08:20:44;;;;;;;2.30;1.90;;;25.00;66.30;;;;;;6275448;22;20460;-69
2022/07/03 08:23:16;;;;;;;1.77;1.67;;;25.00;66.20;;;;;;6249834;22;20428;-69
2022/07/03 08:25:42;;;;;;;2.37;1.90;;;25.00;66.20;;;;;;6249969;22;20401;-69
2022/07/03 08:28:17;;;;;;;3.17;1.60;;;25.00;66.20;;;;;;6276877;22;20480;-69
2022/07/03 08:30:44;;;;;;;2.87;1.80;;;25.10;66.20;;;;;;6250047;22;20439;-69
2022/07/03 08:33:10;;;;;;;3.83;2.07;;;25.10;66.20;;;;;;6249703;22;20907;-69
2022/07/03 08:35:36;;;;;;;2.50;1.90;;;25.10;66.20;;;;;;6276684;22;20405;-69
2022/07/03 08:38:02;;;;;;;2.73;1.83;;;25.10;66.10;;;;;;6249558;22;20413;-68
2022/07/03 08:40:28;;;;;;;3.00;1.90;;;25.20;66.30;;;;;;6249815;22;20761;-69
2022/07/03 08:43:03;;;;;;;2.00;1.80;;;25.20;66.30;;;;;;6276581;22;20178;-69
2022/07/03 08:45:37;;;;;;;2.80;2.10;;;25.20;66.20;;;;;;6276446;22;20724;-69
2022/07/03 08:48:05;;;;;;;2.50;1.57;;;25.20;66.20;;;;;;6276592;22;20401;-69
2022/07/03 08:50:33;;;;;;;2.17;1.63;;;25.20;66.30;;;;;;6276501;22;20401;-69
2022/07/03 08:53:04;;;;;;;2.03;1.50;;;25.20;66.10;;;;;;6199990;22;20381;-69
2022/07/03 08:55:32;;;;;;;2.93;1.60;;;25.30;66.20;;;;;;6224190;22;20427;-69
2022/07/03 08:58:00;;;;;;;2.13;1.93;;;25.30;66.20;;;;;;6276344;22;20362;-69
2022/07/03 09:00:29;;;;;;;3.30;2.03;;;25.30;66.20;;;;;;6249945;22;20365;-69
2022/07/03 09:02:59;;;;;;;2.30;2.03;;;25.40;66.30;;;;;;6249214;22;20435;-69
2022/07/03 09:05:25;;;;;;;1.77;1.63;;;25.40;66.20;;;;;;6199185;22;20541;-69
2022/07/03 09:07:55;;;;;;;2.30;1.73;;;25.40;66.20;;;;;;6249956;22;20444;-69
2022/07/03 09:10:28;;;;;;;3.50;1.70;;;25.40;66.30;;;;;;6276420;22;20408;-69
2022/07/03 09:12:57;;;;;;;2.00;1.80;;;25.40;66.10;;;;;;6249137;22;20382;-69
2022/07/03 09:15:23;;;;;;;2.17;1.97;;;25.40;66.10;;;;;;6249421;22;20376;-69
2022/07/03 09:18:00;;;;;;;1.77;1.67;;;25.50;66.10;;;;;;6249314;22;20396;-69
2022/07/03 09:20:40;;;;;;;2.23;2.03;;;25.50;66.10;;;;;;6276237;22;20679;-69
2022/07/03 09:23:10;;;;;;;2.33;1.80;;;25.50;66.00;;;;;;6275876;22;20404;-71
2022/07/03 09:25:54;;;;;;;3.03;2.10;;;25.50;66.00;;;;;;6275886;22;20407;-71
2022/07/03 09:28:23;;;;;;;2.10;1.87;;;25.60;66.00;;;;;;6222637;22;20401;-70
2022/07/03 09:31:16;;;;;;;2.50;2.03;;;25.60;65.90;;;;;;6246171;22;20385;-69
2022/07/03 09:33:51;;;;;;;1.93;1.80;;;25.60;65.90;;;;;;6185252;22;20390;-73
2022/07/03 09:36:22;;;;;;;1.63;1.53;;;25.60;65.90;;;;;;6275243;22;20715;-73
2022/07/03 09:38:48;;;;;;;2.30;1.50;;;25.70;66.00;;;;;;6247789;22;20492;-68
2022/07/03 09:41:18;;;;;;;2.27;1.80;;;25.70;66.00;;;;;;6274868;22;20798;-70
2022/07/03 09:43:44;;;;;;;2.50;1.60;;;25.80;66.00;;;;;;6247526;22;20470;-71
2022/07/03 09:46:13;;;;;;;3.20;1.80;;;25.80;65.90;;;;;;6273042;22;20739;-73
2022/07/03 09:48:43;;;;;;;4.90;2.17;;;25.80;65.90;;;;;;6247611;22;20398;-72
2022/07/03 09:51:28;;;;;;;2.20;2.00;;;25.90;66.00;;;;;;6274606;22;20998;-72
2022/07/03 09:54:02;;;;;;;2.20;2.00;;;25.90;65.90;;;;;;6247256;22;20369;-72
2022/07/03 09:56:37;;;;;;;2.10;1.57;;;25.90;65.90;;;;;;6248094;22;20366;-72
2022/07/03 09:59:07;;;;;;;3.80;1.60;;;25.90;65.80;;;;;;6221428;22;20415;-71
2022/07/03 10:01:38;;;;;;;2.63;2.37;;;26.00;65.90;;;;;;6272882;22;20393;-74
2022/07/03 10:04:19;;;;;;;2.43;1.80;;;26.00;65.90;;;;;;6222871;22;20698;-73
2022/07/03 10:06:51;;;;;;;2.30;1.60;;;26.00;65.90;;;;;;6275232;22;20403;-74
2022/07/03 10:09:26;;;;;;;1.70;1.60;;;26.10;66.00;;;;;;6221540;22;20462;-70
2022/07/03 10:11:55;;;;;;;4.07;1.80;;;26.10;65.90;;;;;;6274347;22;20421;-69
2022/07/03 10:14:23;;;;;;;2.30;1.83;;;26.10;65.80;;;;;;6246828;22;20891;-70
2022/07/03 10:16:52;;;;;;;2.00;1.77;;;26.20;65.70;;;;;;6274208;22;20384;-68
2022/07/03 10:19:27;;;;;;;2.67;1.90;;;26.20;65.80;;;;;;6274214;22;20401;-70
2022/07/03 10:21:54;;;;;;;3.70;2.20;;;26.20;65.70;;;;;;6247993;22;20821;-70
2022/07/03 10:24:28;;;;;;;3.13;1.83;;;26.30;65.70;;;;;;6275553;22;20397;-70
2022/07/03 10:26:57;;;;;;;1.80;1.70;;;26.30;65.60;;;;;;6277893;22;20424;-70
2022/07/03 10:29:26;;;;;;;3.30;2.13;;;26.40;65.60;;;;;;6200776;22;20401;-69
2022/07/03 10:31:54;;;;;;;2.50;1.93;;;26.40;65.60;;;;;;6277702;22;20367;-71
2022/07/03 10:34:23;;;;;;;1.90;1.60;;;26.40;65.40;;;;;;6250021;22;20353;-70
2022/07/03 10:36:59;;;;;;;2.20;2.00;;;26.40;65.10;;;;;;6275968;22;20401;-69
2022/07/03 10:39:42;;;;;;;2.20;2.00;;;26.50;65.10;;;;;;6277071;22;20420;-69
2022/07/03 10:45:11;;;;;;;2.10;1.90;;;26.60;65.00;;;;;;6250072;22;20416;-70
2022/07/03 10:47:48;;;;;;;2.07;1.97;;;26.60;64.80;;;;;;6225670;22;20394;-69
2022/07/03 10:50:24;;;;;;;3.23;2.00;;;26.60;64.80;;;;;;6250959;22;20403;-69
2022/07/03 10:52:52;;;;;;;2.00;1.80;;;26.70;64.90;;;;;;6251333;22;20432;-69
2022/07/03 10:55:19;;;;;;;2.43;1.83;;;26.70;64.80;;;;;;6225016;22;20388;-69
2022/07/03 10:58:11;;;;;;;3.93;1.80;;;26.70;64.80;;;;;;6275947;22;20425;-69
2022/07/03 11:00:54;;;;;;;3.90;2.10;;;26.80;64.80;;;;;;6266463;22;20934;-69
2022/07/03 11:03:53;;;;;;;2.40;1.77;;;26.80;64.70;;;;;;6250705;22;20432;-70
2022/07/03 11:06:20;;;;;;;2.60;1.97;;;26.90;64.80;;;;;;6250625;22;20500;-69
2022/07/03 11:09:04;;;;;;;2.50;2.03;;;26.90;64.60;;;;;;6250497;22;20393;-69
2022/07/03 11:11:59;;;;;;;4.20;1.60;;;26.90;64.50;;;;;;6277371;22;20444;-69
2022/07/03 11:14:32;;;;;;;2.23;1.87;;;27.00;64.50;;;;;;6276199;22;20366;-69
2022/07/03 11:17:21;;;;;;;2.03;1.90;;;27.00;64.50;;;;;;6250054;22;20496;-70
2022/07/03 11:23:12;;;;;;;2.37;1.60;;;27.10;64.20;;;;;;6276951;22;20441;-70
2022/07/03 11:25:45;;;;;;;2.40;1.70;;;27.10;63.90;;;;;;6128719;23;20486;-70
2022/07/03 11:28:32;;;;;;;2.00;1.80;;;27.10;63.80;;;;;;6229973;22;20419;-70
2022/07/03 11:31:11;;;;;;;2.30;1.70;;;27.20;63.70;;;;;;6275418;22;20369;-70
2022/07/03 11:33:46;;;;;;;1.70;1.60;;;27.20;63.80;;;;;;6276902;22;20472;-70
2022/07/03 11:36:16;;;;;;;2.67;1.90;;;27.30;63.70;;;;;;6223918;22;20381;-69
2022/07/03 11:38:54;;;;;;;2.77;1.70;;;27.30;63.60;;;;;;6272453;22;20463;-71
2022/07/03 11:41:24;;;;;;;2.50;1.90;;;27.30;63.60;;;;;;6274274;22;20377;-70
2022/07/03 11:43:57;;;;;;;2.27;1.63;;;27.40;63.50;;;;;;6246028;22;20725;-70
2022/07/03 11:46:29;;;;;;;2.10;1.90;;;27.40;63.50;;;;;;6221720;22;20923;-69
2022/07/03 11:49:15;;;;;;;1.80;1.67;;;27.40;63.50;;;;;;6246974;22;20393;-69
2022/07/03 11:51:56;;;;;;;3.20;1.80;;;27.40;63.30;;;;;;6220384;22;20365;-69
2022/07/03 11:54:23;;;;;;;6.03;2.03;;;27.50;63.20;;;;;;6245964;22;20373;-70
2022/07/03 11:56:51;;;;;;;1.87;1.67;;;27.50;63.20;;;;;;6271856;22;20838;-70
2022/07/03 11:59:20;;;;;;;2.80;2.13;;;27.50;63.00;;;;;;6270734;22;20409;-70
2022/07/03 12:01:51;;;;;;;2.63;1.80;;;27.60;63.00;;;;;;6273046;22;20449;-70
2022/07/03 12:04:23;;;;;;;1.77;1.67;;;27.60;62.90;;;;;;6246021;22;20366;-70
2022/07/03 12:06:57;;;;;;;1.87;1.70;;;27.60;62.70;;;;;;6246879;22;20362;-70
2022/07/03 12:09:37;;;;;;;2.73;1.83;;;27.70;62.50;;;;;;6223234;22;20385;-70
2022/07/03 12:12:03;;;;;;;2.20;2.00;;;27.70;62.10;;;;;;6274323;22;20464;-70
2022/07/03 12:14:55;;;;;;;3.57;1.63;;;27.70;61.90;;;;;;6222926;22;20435;-70
2022/07/03 12:17:28;;;;;;;1.70;1.60;;;27.80;62.20;;;;;;6274134;22;20409;-70
2022/07/03 12:20:01;;;;;;;4.27;2.77;;;27.80;62.20;;;;;;6247222;22;20416;-70
2022/07/03 12:22:28;;;;;;;1.60;1.50;;;27.90;62.30;;;;;;6273929;22;20366;-70
2022/07/03 12:25:08;;;;;;;2.07;1.83;;;27.90;62.30;;;;;;6247645;22;20942;-70
2022/07/03 12:27:39;;;;;;;1.83;1.70;;;27.90;62.10;;;;;;6273648;22;20378;-70
2022/07/03 12:30:09;;;;;;;1.77;1.67;;;28.00;62.10;;;;;;6274060;22;20400;-70
2022/07/03 12:32:37;;;;;;;1.50;1.40;;;28.00;62.00;;;;;;6247276;22;20354;-70
2022/07/03 12:35:04;;;;;;;3.77;1.87;;;28.00;61.90;;;;;;6273548;22;20775;-70
2022/07/03 12:37:46;;;;;;;1.80;1.67;;;28.10;61.70;;;;;;6243544;22;20405;-70
2022/07/03 12:40:15;;;;;;;2.33;1.67;;;28.10;61.40;;;;;;6216706;23;20398;-70
2022/07/03 12:42:50;;;;;;;2.83;1.83;;;28.10;61.10;;;;;;6272448;22;20385;-69
2022/07/03 12:45:22;;;;;;;1.87;1.73;;;28.10;60.80;;;;;;6241773;23;20437;-70
2022/07/03 12:48:17;;;;;;;1.93;1.60;;;28.10;60.60;;;;;;6269228;22;20372;-70
2022/07/03 12:50:44;;;;;;;2.10;1.87;;;28.20;60.80;;;;;;6237077;22;20425;-70
2022/07/03 12:53:29;;;;;;;2.03;1.90;;;28.20;60.50;;;;;;6273632;22;20362;-70
2022/07/03 12:56:03;;;;;;;1.67;1.57;;;28.20;60.70;;;;;;6273816;22;20377;-70
2022/07/03 13:01:29;;;;;;;1.70;1.50;;;28.30;60.80;;;;;;6240853;23;20370;-70
2022/07/03 13:03:59;;;;;;;2.00;1.60;;;28.30;60.80;;;;;;6243188;22;21045;-70
2022/07/03 13:06:28;;;;;;;3.70;1.87;;;28.30;60.60;;;;;;6244934;22;20420;-70
2022/07/03 13:09:00;;;;;;;2.07;1.70;;;28.40;60.60;;;;;;6272838;22;20408;-70
2022/07/03 13:11:30;;;;;;;2.60;1.60;;;28.40;60.40;;;;;;6271339;22;20404;-70
2022/07/03 13:14:07;;;;;;;1.97;1.60;;;28.50;60.30;;;;;;6273172;22;20448;-70
2022/07/03 13:16:54;;;;;;;1.83;1.40;;;28.50;60.20;;;;;;6246216;22;20446;-70
2022/07/03 13:19:27;;;;;;;1.60;1.50;;;28.50;60.10;;;;;;6245954;22;20424;-69
2022/07/03 13:21:57;;;;;;;1.60;1.50;;;28.60;60.10;;;;;;6272849;22;20365;-70
2022/07/03 13:24:23;;;;;;;1.37;1.27;;;28.60;59.90;;;;;;6221097;22;20393;-70